createdAt,value
2023-03-05T00:02:19.289Z,71.02
2023-03-05T00:04:46.179Z,70.98
2023-03-05T00:07:14.621Z,70.34
2023-03-05T00:09:41.599Z,70.02
2023-03-05T00:12:09.089Z,70.14
2023-03-05T00:14:36.019Z,70.48
2023-03-05T00:17:02.874Z,70.51
2023-03-05T00:19:29.695Z,70.73
2023-03-05T00:21:56.566Z,71.41
2023-03-05T00:24:24.793Z,71.42
2023-03-05T00:26:51.573Z,71.12
2023-03-05T00:29:20.208Z,71.59
2023-03-05T00:31:48.561Z,71.62
2023-03-05T00:34:18.805Z,71.99
2023-03-05T00:36:48.548Z,71.76
2023-03-05T00:39:17.122Z,71.48
2023-03-05T00:41:45.541Z,72.06
2023-03-05T00:44:12.789Z,72.11
2023-03-05T00:46:39.671Z,71.96
2023-03-05T00:49:07.621Z,71.96
2023-03-05T00:51:34.597Z,72.10
2023-03-05T00:54:02.432Z,71.78
2023-03-05T00:56:29.430Z,71.57
2023-03-05T00:58:57.938Z,70.88
2023-03-05T01:01:25.753Z,71.08
2023-03-05T01:03:52.666Z,70.93
2023-03-05T01:06:19.613Z,70.83
2023-03-05T01:08:46.611Z,70.34
2023-03-05T01:11:14.192Z,70.06
2023-03-05T01:13:41.312Z,70.09
2023-03-05T01:16:09.777Z,69.83
2023-03-05T01:18:38.261Z,70.11
2023-03-05T01:21:06.528Z,70.16
2023-03-05T01:23:33.849Z,70.46
2023-03-05T01:26:00.625Z,70.24
2023-03-05T01:28:28.728Z,70.11
2023-03-05T01:30:56.013Z,70.33
2023-03-05T01:33:24.446Z,70.17
2023-03-05T01:35:51.521Z,70.20
2023-03-05T01:38:18.683Z,70.54
2023-03-05T01:40:45.665Z,70.48
2023-03-05T01:43:26.290Z,70.42
2023-03-05T01:46:33.836Z,70.34
2023-03-05T01:49:13.052Z,69.80
2023-03-05T01:51:48.953Z,70.44
2023-03-05T01:54:20.701Z,70.98
2023-03-05T01:56:51.817Z,71.23
2023-03-05T01:59:19.540Z,71.35
2023-03-05T02:01:51.670Z,71.54
2023-03-05T02:04:27.252Z,72.04
2023-03-05T02:06:53.999Z,71.96
2023-03-05T02:09:21.495Z,72.18
2023-03-05T02:11:48.405Z,72.61
2023-03-05T02:14:15.398Z,73.14
2023-03-05T02:16:42.833Z,73.44
2023-03-05T02:19:12.405Z,73.58
2023-03-05T02:21:44.271Z,74.08
2023-03-05T02:24:16.875Z,73.88
2023-03-05T02:26:44.991Z,74.06
2023-03-05T02:29:18.808Z,74.19
2023-03-05T02:31:46.311Z,73.66
2023-03-05T02:34:13.467Z,73.52
2023-03-05T02:36:41.715Z,72.72
2023-03-05T02:39:09.782Z,73.11
2023-03-05T02:41:37.058Z,73.41
2023-03-05T02:44:05.069Z,73.58
2023-03-05T02:46:33.263Z,72.83
2023-03-05T02:49:00.434Z,72.69
2023-03-05T02:51:27.869Z,72.34
2023-03-05T02:53:56.677Z,72.40
2023-03-05T02:56:26.347Z,71.91
2023-03-05T02:58:53.876Z,71.77
2023-03-05T03:01:20.847Z,71.49
2023-03-05T03:03:47.910Z,71.69
2023-03-05T03:06:14.718Z,71.82
2023-03-05T03:08:41.630Z,72.03
2023-03-05T03:11:12.049Z,71.13
2023-03-05T03:13:39.307Z,71.03
2023-03-05T03:16:09.009Z,71.03
2023-03-05T03:18:36.440Z,71.34
2023-03-05T03:21:04.374Z,70.83
2023-03-05T03:23:32.499Z,70.67
2023-03-05T03:25:59.911Z,71.54
2023-03-05T03:28:28.081Z,71.54
2023-03-05T03:30:54.908Z,71.53
2023-03-05T03:33:21.794Z,71.05
2023-03-05T03:35:48.710Z,71.38
2023-03-05T03:38:15.556Z,71.73
2023-03-05T03:40:42.643Z,71.71
2023-03-05T03:43:09.565Z,71.55
2023-03-05T03:45:41.685Z,72.88
2023-03-05T03:48:08.539Z,72.68
2023-03-05T03:50:38.948Z,72.92
2023-03-05T03:53:06.156Z,73.38
2023-03-05T03:55:33.458Z,73.06
2023-03-05T03:58:00.562Z,73.24
2023-03-05T04:00:27.821Z,72.20
2023-03-05T04:02:56.174Z,72.45
2023-03-05T04:05:23.004Z,72.12
2023-03-05T04:07:51.522Z,71.92
2023-03-05T04:10:18.916Z,71.69
2023-03-05T04:12:45.720Z,72.79
2023-03-05T04:15:27.493Z,72.11
2023-03-05T04:17:58.296Z,71.98
2023-03-05T04:20:25.530Z,72.06
2023-03-05T04:22:52.573Z,71.68
2023-03-05T04:25:19.503Z,71.98
2023-03-05T04:27:49.964Z,71.83
2023-03-05T04:30:17.122Z,72.03
2023-03-05T04:32:44.014Z,71.82
2023-03-05T04:35:12.497Z,72.06
2023-03-05T04:37:39.298Z,71.91
2023-03-05T04:40:08.615Z,71.72
2023-03-05T04:42:35.739Z,71.41
2023-03-05T04:45:02.970Z,71.57
2023-03-05T04:47:30.129Z,71.59
2023-03-05T04:49:56.924Z,71.69
2023-03-05T04:52:25.598Z,71.58
2023-03-05T04:54:52.609Z,71.52
2023-03-05T04:57:20.060Z,71.28
2023-03-05T04:59:46.831Z,71.32
2023-03-05T05:02:13.637Z,71.58
2023-03-05T05:04:40.525Z,71.50
2023-03-05T05:07:07.358Z,71.21
2023-03-05T05:09:35.620Z,71.39
2023-03-05T05:12:02.443Z,71.38
2023-03-05T05:14:29.346Z,71.68
2023-03-05T05:16:56.147Z,71.37
2023-03-05T05:19:23.262Z,71.23
2023-03-05T05:21:50.029Z,71.22
2023-03-05T05:24:16.901Z,71.32
2023-03-05T05:26:45.192Z,71.19
2023-03-05T05:29:11.987Z,71.28
2023-03-05T05:31:38.856Z,71.24
2023-03-05T05:34:05.742Z,71.82
2023-03-05T05:36:32.550Z,71.29
2023-03-05T05:38:59.458Z,71.60
2023-03-05T05:41:26.356Z,71.24
2023-03-05T05:43:54.734Z,71.23
2023-03-05T05:46:23.200Z,71.80
2023-03-05T05:48:51.029Z,72.14
2023-03-05T05:51:21.560Z,72.49
2023-03-05T05:53:49.711Z,72.81
2023-03-05T05:56:17.428Z,72.49
2023-03-05T05:58:47.461Z,72.72
2023-03-05T06:01:20.039Z,72.51
2023-03-05T06:03:47.604Z,73.30
2023-03-05T06:06:17.023Z,72.99
2023-03-05T06:08:44.110Z,72.62
2023-03-05T06:11:11.434Z,72.65
2023-03-05T06:13:38.915Z,72.04
2023-03-05T06:16:10.743Z,72.03
2023-03-05T06:18:39.149Z,72.26
2023-03-05T06:21:10.364Z,72.09
2023-03-05T06:23:37.286Z,72.40
2023-03-05T06:26:07.516Z,71.90
2023-03-05T06:28:35.415Z,72.29
2023-03-05T06:31:05.494Z,72.04
2023-03-05T06:33:33.731Z,72.13
2023-03-05T06:36:03.647Z,72.04
2023-03-05T06:38:30.549Z,71.45
2023-03-05T06:41:01.237Z,71.83
2023-03-05T06:43:28.212Z,71.83
2023-03-05T06:46:03.194Z,71.80
2023-03-05T06:48:30.075Z,71.61
2023-03-05T06:50:57.056Z,71.43
2023-03-05T06:53:25.833Z,71.77
2023-03-05T06:55:54.482Z,71.76
2023-03-05T06:58:22.299Z,71.49
2023-03-05T07:00:49.345Z,71.90
2023-03-05T07:03:16.155Z,71.43
2023-03-05T07:05:43.361Z,71.73
2023-03-05T07:08:10.750Z,71.60
2023-03-05T07:10:41.247Z,71.85
2023-03-05T07:13:09.117Z,71.65
2023-03-05T07:15:39.362Z,71.83
2023-03-05T07:18:06.329Z,71.89
2023-03-05T07:20:34.735Z,71.61
2023-03-05T07:23:02.579Z,70.96
2023-03-05T07:25:29.838Z,71.32
2023-03-05T07:27:58.532Z,71.29
2023-03-05T07:30:25.347Z,71.06
2023-03-05T07:32:52.281Z,71.40
2023-03-05T07:35:21.257Z,71.59
2023-03-05T07:37:48.181Z,71.03
2023-03-05T07:40:15.413Z,71.37
2023-03-05T07:42:42.327Z,71.27
2023-03-05T07:45:25.268Z,71.21
2023-03-05T07:47:52.676Z,70.80
2023-03-05T07:50:20.018Z,71.15
2023-03-05T07:52:47.110Z,70.79
2023-03-05T07:55:14.200Z,70.69
2023-03-05T07:57:40.964Z,70.75
2023-03-05T08:00:09.581Z,70.87
2023-03-05T08:02:40.529Z,70.42
2023-03-05T08:05:08.260Z,70.28
2023-03-05T08:07:36.334Z,70.28
2023-03-05T08:10:03.890Z,70.63
2023-03-05T08:12:30.826Z,70.41
2023-03-05T08:14:57.968Z,70.92
2023-03-05T08:17:24.837Z,70.47
2023-03-05T08:19:53.338Z,70.29
2023-03-05T08:22:20.338Z,70.24
2023-03-05T08:24:47.218Z,70.52
2023-03-05T08:27:14.109Z,69.93
2023-03-05T08:29:41.036Z,70.43
2023-03-05T08:32:08.082Z,70.46
2023-03-05T08:34:35.067Z,70.08
2023-03-05T08:37:03.457Z,70.03
2023-03-05T08:39:30.267Z,69.90
2023-03-05T08:41:57.082Z,70.20
2023-03-05T08:44:25.876Z,69.78
2023-03-05T08:46:53.000Z,69.61
2023-03-05T08:49:19.903Z,69.50
2023-03-05T08:51:48.528Z,69.12
2023-03-05T08:54:16.704Z,68.79
2023-03-05T08:56:43.721Z,68.87
2023-03-05T08:59:12.644Z,69.23
2023-03-05T09:01:40.460Z,69.13
2023-03-05T09:04:07.396Z,69.14
2023-03-05T09:06:34.283Z,69.20
2023-03-05T09:09:01.115Z,69.38
2023-03-05T09:11:29.470Z,69.25
2023-03-05T09:13:56.325Z,69.79
2023-03-05T09:16:24.423Z,70.13
2023-03-05T09:18:51.361Z,70.53
2023-03-05T09:21:19.212Z,70.52
2023-03-05T09:23:46.672Z,70.93
2023-03-05T09:26:16.238Z,71.70
2023-03-05T09:28:44.827Z,71.79
2023-03-05T09:31:12.652Z,73.62
2023-03-05T09:33:40.483Z,75.39
2023-03-05T09:36:20.020Z,77.54
2023-03-05T09:38:47.171Z,75.48
2023-03-05T09:41:26.544Z,74.44
2023-03-05T09:44:09.529Z,76.00
2023-03-05T09:46:52.240Z,73.77
2023-03-05T09:49:38.059Z,72.56
2023-03-05T09:52:16.900Z,72.57
2023-03-05T09:54:49.476Z,72.20
2023-03-05T09:57:25.626Z,72.35
2023-03-05T09:59:59.570Z,72.53
2023-03-05T10:02:33.728Z,72.43
2023-03-05T10:05:13.483Z,72.10
2023-03-05T10:07:45.805Z,71.13
2023-03-05T10:10:19.848Z,70.99
2023-03-05T10:12:52.127Z,70.82
2023-03-05T10:15:36.607Z,69.92
2023-03-05T10:18:18.637Z,69.92
2023-03-05T10:20:59.086Z,69.07
2023-03-05T10:23:37.210Z,69.46
2023-03-05T10:26:20.302Z,69.42
2023-03-05T10:29:00.112Z,69.25
2023-03-05T10:31:58.084Z,69.60
2023-03-05T10:35:21.400Z,68.79
2023-03-05T10:38:09.623Z,68.42
2023-03-05T10:40:45.722Z,68.00
2023-03-05T10:43:24.026Z,67.61
2023-03-05T10:45:54.378Z,67.04
2023-03-05T10:48:36.616Z,67.28
2023-03-05T10:51:16.582Z,67.28
2023-03-05T10:53:55.579Z,67.40
2023-03-05T10:56:26.614Z,66.53
2023-03-05T10:58:54.033Z,66.38
2023-03-05T11:01:24.454Z,65.93
2023-03-05T11:03:57.034Z,65.84
2023-03-05T11:06:31.965Z,65.74
2023-03-05T11:09:22.812Z,65.70
2023-03-05T11:12:15.955Z,64.72
2023-03-05T11:14:45.999Z,64.35
2023-03-05T11:17:41.721Z,64.48
2023-03-05T11:20:33.174Z,63.90
2023-03-05T11:23:11.752Z,64.74
2023-03-05T11:25:57.329Z,64.19
2023-03-05T11:28:33.294Z,64.63
2023-03-05T11:31:22.271Z,64.10
2023-03-05T11:34:00.731Z,64.02
2023-03-05T11:36:32.104Z,64.18
2023-03-05T11:39:10.415Z,63.71
2023-03-05T11:41:42.175Z,63.11
2023-03-05T11:44:15.029Z,62.94
2023-03-05T11:46:47.216Z,62.82
2023-03-05T11:49:20.580Z,62.42
2023-03-05T11:52:03.298Z,61.74
2023-03-05T11:54:40.283Z,62.46
2023-03-05T11:57:12.654Z,61.14
2023-03-05T11:59:42.790Z,60.67
2023-03-05T12:02:20.356Z,60.38
2023-03-05T12:04:50.248Z,60.61
2023-03-05T12:07:31.906Z,60.80
2023-03-05T12:09:59.013Z,61.55
2023-03-05T12:12:41.242Z,62.28
2023-03-05T12:15:39.397Z,61.88
2023-03-05T12:18:24.271Z,62.51
2023-03-05T12:21:06.293Z,63.22
2023-03-05T12:23:48.854Z,62.97
2023-03-05T12:26:17.325Z,63.47
2023-03-05T12:28:57.894Z,63.50
2023-03-05T12:31:36.968Z,64.04
2023-03-05T12:34:56.764Z,62.39
2023-03-05T12:37:59.137Z,61.25
2023-03-05T12:40:29.542Z,61.49
2023-03-05T12:43:00.161Z,61.43
2023-03-05T12:45:41.733Z,61.13
2023-03-05T12:48:44.269Z,61.76
2023-03-05T12:51:32.218Z,61.59
2023-03-05T12:54:26.674Z,60.87
2023-03-05T12:56:57.299Z,60.56
2023-03-05T12:59:37.753Z,60.25
2023-03-05T13:02:21.869Z,59.34
2023-03-05T13:04:50.505Z,59.63
2023-03-05T13:07:19.132Z,59.74
2023-03-05T13:09:53.911Z,60.11
2023-03-05T13:12:25.794Z,60.53
2023-03-05T13:15:03.874Z,60.96
2023-03-05T13:17:37.067Z,61.24
2023-03-05T13:20:32.480Z,61.68
2023-03-05T13:23:16.812Z,61.54
2023-03-05T13:25:44.798Z,61.61
2023-03-05T13:28:15.836Z,61.66
2023-03-05T13:30:50.477Z,62.42
2023-03-05T13:33:24.650Z,62.45
2023-03-05T13:35:53.871Z,62.63
2023-03-05T13:38:26.832Z,63.22
2023-03-05T13:41:19.786Z,63.42
2023-03-05T13:43:50.429Z,63.95
2023-03-05T13:46:27.038Z,64.12
2023-03-05T13:48:56.470Z,64.55
2023-03-05T13:51:23.338Z,64.54
2023-03-05T13:53:58.745Z,64.44
2023-03-05T13:56:25.644Z,64.67
2023-03-05T13:58:56.113Z,64.23
2023-03-05T14:01:31.123Z,63.82
2023-03-05T14:04:06.502Z,63.76
2023-03-05T14:06:42.170Z,63.68
2023-03-05T14:09:22.854Z,63.60
2023-03-05T14:11:57.092Z,63.82
2023-03-05T14:14:29.601Z,63.33
2023-03-05T14:17:32.761Z,63.00
2023-03-05T14:20:26.353Z,63.47
2023-03-05T14:22:56.661Z,63.14
2023-03-05T14:25:37.900Z,62.76
2023-03-05T14:28:20.638Z,63.07
2023-03-05T14:30:52.895Z,63.54
2023-03-05T14:33:22.882Z,63.98
2023-03-05T14:35:51.044Z,63.52
2023-03-05T14:38:24.199Z,63.54
2023-03-05T14:40:51.372Z,63.26
2023-03-05T14:43:18.158Z,62.84
2023-03-05T14:45:45.449Z,62.37
2023-03-05T14:48:16.631Z,61.36
2023-03-05T14:50:48.476Z,60.50
2023-03-05T14:53:19.878Z,60.84
2023-03-05T14:55:52.829Z,61.57
2023-03-05T14:58:22.532Z,61.15
2023-03-05T15:00:51.074Z,61.62
2023-03-05T15:03:21.255Z,61.22
2023-03-05T15:05:52.466Z,61.47
2023-03-05T15:08:25.004Z,61.18
2023-03-05T15:10:52.995Z,61.41
2023-03-05T15:13:21.006Z,61.49
2023-03-05T15:15:51.317Z,61.18
2023-03-05T15:18:22.065Z,61.05
2023-03-05T15:20:50.168Z,61.40
2023-03-05T15:23:16.998Z,61.34
2023-03-05T15:25:43.870Z,61.09
2023-03-05T15:28:11.734Z,61.51
2023-03-05T15:30:42.426Z,61.25
2023-03-05T15:33:12.722Z,61.39
2023-03-05T15:35:41.914Z,61.03
2023-03-05T15:38:08.796Z,61.07
2023-03-05T15:40:35.644Z,61.34
2023-03-05T15:43:02.430Z,61.16
2023-03-05T15:45:30.189Z,61.05
2023-03-05T15:47:57.242Z,61.41
2023-03-05T15:50:24.153Z,61.49
2023-03-05T15:52:52.778Z,61.79
2023-03-05T15:55:20.961Z,61.40
2023-03-05T15:57:50.509Z,61.32
2023-03-05T16:00:23.699Z,61.79
2023-03-05T16:02:53.417Z,62.01
2023-03-05T16:05:20.761Z,61.69
2023-03-05T16:07:52.984Z,61.99
2023-03-05T16:10:25.050Z,61.49
2023-03-05T16:13:01.044Z,61.89
2023-03-05T16:15:31.341Z,62.24
2023-03-05T16:18:04.270Z,62.35
2023-03-05T16:20:31.128Z,63.08
2023-03-05T16:22:59.801Z,62.86
2023-03-05T16:25:26.832Z,63.07
2023-03-05T16:27:53.736Z,62.31
2023-03-05T16:30:21.379Z,62.81
2023-03-05T16:32:48.578Z,62.96
2023-03-05T16:35:16.053Z,63.11
2023-03-05T16:37:43.127Z,63.38
2023-03-05T16:40:13.049Z,63.60
2023-03-05T16:42:40.053Z,63.41
2023-03-05T16:45:09.623Z,62.96
2023-03-05T16:47:36.524Z,63.29
2023-03-05T16:50:08.042Z,63.45
2023-03-05T16:52:35.585Z,63.68
2023-03-05T16:55:03.588Z,63.74
2023-03-05T16:57:32.428Z,63.97
2023-03-05T16:59:59.241Z,63.95
2023-03-05T17:02:26.149Z,63.70
2023-03-05T17:04:53.069Z,64.01
2023-03-05T17:07:19.873Z,63.81
2023-03-05T17:09:47.777Z,64.03
2023-03-05T17:12:14.705Z,63.82
2023-03-05T17:14:43.603Z,64.38
2023-03-05T17:17:10.762Z,64.38
2023-03-05T17:19:38.013Z,64.35
2023-03-05T17:22:05.225Z,64.79
2023-03-05T17:24:32.308Z,64.84
2023-03-05T17:26:59.234Z,64.41
2023-03-05T17:29:26.686Z,64.59
2023-03-05T17:31:54.896Z,64.65
2023-03-05T17:34:33.238Z,65.14
2023-03-05T17:37:02.366Z,65.16
2023-03-05T17:39:30.854Z,65.07
2023-03-05T17:41:57.821Z,65.06
2023-03-05T17:44:24.644Z,65.19
2023-03-05T17:46:51.473Z,65.16
2023-03-05T17:49:19.769Z,65.35
2023-03-05T17:51:47.001Z,65.71
2023-03-05T17:54:13.806Z,65.68
2023-03-05T17:56:40.629Z,65.74
2023-03-05T17:59:07.464Z,65.69
2023-03-05T18:01:34.675Z,65.87
2023-03-05T18:04:01.830Z,65.94
2023-03-05T18:06:30.081Z,66.45
2023-03-05T18:08:57.435Z,66.53
2023-03-05T18:11:24.700Z,66.87
2023-03-05T18:13:51.761Z,67.38
2023-03-05T18:16:18.593Z,67.25
2023-03-05T18:18:45.829Z,67.81
2023-03-05T18:21:12.626Z,68.41
2023-03-05T18:23:41.031Z,68.77
2023-03-05T18:26:07.921Z,69.43
2023-03-05T18:28:34.696Z,69.40
2023-03-05T18:31:02.969Z,68.72
2023-03-05T18:33:29.902Z,69.14
2023-03-05T18:35:58.802Z,69.23
2023-03-05T18:38:28.851Z,68.40
2023-03-05T18:41:01.106Z,68.44
2023-03-05T18:43:28.179Z,68.30
2023-03-05T18:45:55.683Z,68.36
2023-03-05T18:48:23.175Z,68.44
2023-03-05T18:50:51.350Z,68.41
2023-03-05T18:53:19.101Z,68.66
2023-03-05T18:55:46.166Z,68.25
2023-03-05T18:58:14.321Z,68.01
2023-03-05T19:00:44.858Z,68.16
2023-03-05T19:03:13.189Z,67.93
2023-03-05T19:05:41.698Z,67.87
2023-03-05T19:08:08.825Z,67.64
2023-03-05T19:10:37.085Z,68.37
2023-03-05T19:13:04.135Z,68.89
2023-03-05T19:15:32.592Z,68.66
2023-03-05T19:17:59.664Z,68.84
2023-03-05T19:20:26.506Z,69.56
2023-03-05T19:22:53.394Z,70.48
2023-03-05T19:25:20.248Z,71.02
2023-03-05T19:27:47.138Z,71.63
2023-03-05T19:30:14.741Z,71.74
2023-03-05T19:32:43.096Z,71.36
2023-03-05T19:35:14.977Z,71.56
2023-03-05T19:37:41.883Z,72.92
2023-03-05T19:40:11.442Z,72.19
2023-03-05T19:42:38.253Z,71.84
2023-03-05T19:45:06.548Z,72.22
2023-03-05T19:47:33.458Z,71.84
2023-03-05T19:50:01.653Z,71.41
2023-03-05T19:52:29.963Z,72.22
2023-03-05T19:55:22.309Z,71.23
2023-03-05T19:57:49.357Z,71.04
2023-03-05T20:00:17.459Z,70.44
2023-03-05T20:02:44.644Z,70.09
2023-03-05T20:05:12.809Z,70.31
2023-03-05T20:07:40.054Z,70.98
2023-03-05T20:10:08.523Z,71.53
2023-03-05T20:12:35.556Z,71.80
2023-03-05T20:15:02.575Z,72.68
2023-03-05T20:17:30.449Z,72.65
2023-03-05T20:19:57.336Z,73.21
2023-03-05T20:22:25.763Z,72.79
2023-03-05T20:24:52.560Z,72.63
2023-03-05T20:27:20.119Z,73.41
2023-03-05T20:29:47.360Z,73.77
2023-03-05T20:32:16.028Z,72.72
2023-03-05T20:34:50.786Z,72.40
2023-03-05T20:37:21.279Z,71.93
2023-03-05T20:39:50.220Z,72.17
2023-03-05T20:42:17.178Z,71.90
2023-03-05T20:45:19.552Z,72.52
2023-03-05T20:47:44.612Z,72.49
2023-03-05T20:50:14.226Z,72.99
2023-03-05T20:52:41.227Z,73.27
2023-03-05T20:55:12.249Z,73.69
2023-03-05T20:57:39.257Z,73.44
2023-03-05T21:00:07.896Z,72.65
2023-03-05T21:02:34.828Z,72.75
2023-03-05T21:05:01.783Z,72.72
2023-03-05T21:07:28.860Z,72.79
2023-03-05T21:09:58.011Z,73.00
2023-03-05T21:12:26.328Z,73.37
2023-03-05T21:14:53.206Z,72.99
2023-03-05T21:17:20.058Z,72.42
2023-03-05T21:19:46.865Z,72.05
2023-03-05T21:22:29.316Z,72.44
2023-03-05T21:24:57.684Z,72.14
2023-03-05T21:27:24.721Z,72.42
2023-03-05T21:29:51.593Z,72.92
2023-03-05T21:32:18.671Z,72.54
2023-03-05T21:34:45.517Z,72.82
2023-03-05T21:37:12.311Z,72.69
2023-03-05T21:39:41.322Z,73.47
2023-03-05T21:42:10.026Z,73.10
2023-03-05T21:44:36.829Z,73.01
2023-03-05T21:47:03.804Z,74.24
2023-03-05T21:49:30.670Z,74.17
2023-03-05T21:51:58.593Z,74.02
2023-03-05T21:54:26.816Z,73.84
2023-03-05T21:56:56.268Z,74.58
2023-03-05T21:59:23.086Z,74.87
2023-03-05T22:01:52.567Z,75.10
2023-03-05T22:04:19.597Z,75.25
2023-03-05T22:06:46.407Z,75.42
2023-03-05T22:09:14.347Z,75.67
2023-03-05T22:11:41.621Z,75.83
2023-03-05T22:14:10.230Z,75.66
2023-03-05T22:16:37.492Z,75.28
2023-03-05T22:19:05.499Z,75.20
2023-03-05T22:21:32.338Z,74.37
2023-03-05T22:23:59.364Z,75.23
2023-03-05T22:26:34.084Z,75.46
2023-03-05T22:29:01.897Z,75.85
2023-03-05T22:32:18.670Z,76.45
2023-03-05T22:34:46.013Z,76.55
2023-03-05T22:37:12.863Z,76.26
2023-03-05T22:39:39.854Z,76.73
2023-03-05T22:42:07.221Z,76.57
2023-03-05T22:44:34.088Z,77.12
2023-03-05T22:47:01.108Z,76.70
2023-03-05T22:49:29.279Z,76.64
2023-03-05T22:51:56.067Z,77.20
2023-03-05T22:54:22.858Z,77.14
2023-03-05T22:56:50.135Z,77.65
2023-03-05T22:59:17.041Z,77.37
2023-03-05T23:01:43.940Z,77.70
2023-03-05T23:04:11.614Z,77.81
2023-03-05T23:06:39.760Z,78.01
2023-03-05T23:09:06.764Z,77.59
2023-03-05T23:11:33.677Z,77.72
2023-03-05T23:14:00.570Z,77.44
2023-03-05T23:16:28.174Z,76.93
2023-03-05T23:18:55.017Z,76.26
2023-03-05T23:21:21.900Z,75.78
2023-03-05T23:23:50.226Z,75.68
2023-03-05T23:26:17.081Z,74.96
2023-03-05T23:28:44.102Z,74.10
2023-03-05T23:31:11.211Z,73.76
2023-03-05T23:33:38.321Z,73.62
2023-03-05T23:36:05.625Z,73.24
2023-03-05T23:38:32.453Z,73.67
2023-03-05T23:41:01.256Z,73.91
2023-03-05T23:43:29.861Z,75.35
2023-03-05T23:45:56.967Z,75.97
2023-03-05T23:48:27.350Z,76.96
2023-03-05T23:50:55.830Z,76.88
2023-03-05T23:53:25.961Z,77.00
2023-03-05T23:55:54.394Z,77.61
2023-03-05T23:58:23.862Z,77.49
